Time;durP1;ratioP1;P1;durP2;ratioP2;P2;SDS_P1;SDS_P2;PMS_P1;PMS_P2;Temp;Humidity;BMP_temperature;BMP_pressure;BME280_temperature;BME280_humidity;BME280_pressure;Samples;Min_cycle;Max_cycle;Signal;HPM_P1;HPM_P2
2022/08/02 00:00:11;;;;;;;4.03;3.10;;;19.80;99.90;;;;;;5071429;28;20194;-67
2022/08/02 00:02:37;;;;;;;3.67;3.30;;;19.80;99.90;;;;;;5070930;28;20283;-69
2022/08/02 00:05:05;;;;;;;4.50;3.60;;;19.70;99.90;;;;;;5061631;28;20198;-69
2022/08/02 00:07:32;;;;;;;6.23;3.57;;;19.60;99.90;;;;;;5070174;28;20194;-68
2022/08/02 00:10:07;;;;;;;3.87;3.40;;;19.60;99.90;;;;;;5069954;28;20208;-68
2022/08/02 00:12:34;;;;;;;4.27;3.03;;;19.50;99.90;;;;;;5045273;28;20207;-68
2022/08/02 00:15:01;;;;;;;4.37;3.50;;;19.40;99.90;;;;;;5062048;28;20666;-68
2022/08/02 00:17:27;;;;;;;3.83;3.40;;;19.30;99.90;;;;;;5066902;28;20198;-68
2022/08/02 00:19:54;;;;;;;3.87;3.20;;;19.20;99.90;;;;;;5069602;28;20210;-68
2022/08/02 00:22:20;;;;;;;4.37;3.77;;;19.20;99.90;;;;;;5065099;28;20233;-68
2022/08/02 00:24:47;;;;;;;4.00;3.40;;;19.10;99.90;;;;;;5061992;28;20194;-68
2022/08/02 00:27:14;;;;;;;4.20;3.80;;;19.20;99.90;;;;;;5050001;28;20197;-68
2022/08/02 00:29:40;;;;;;;4.40;3.57;;;19.20;99.90;;;;;;5050072;28;20618;-68
2022/08/02 00:32:19;;;;;;;4.97;3.07;;;19.30;99.90;;;;;;5046752;28;20226;-68
2022/08/02 00:34:45;;;;;;;6.47;3.70;;;19.40;99.90;;;;;;5048270;28;20198;-68
2022/08/02 00:37:12;;;;;;;3.63;3.23;;;19.60;99.90;;;;;;5065624;28;20595;-68
2022/08/02 00:39:39;;;;;;;4.50;3.63;;;19.70;99.90;;;;;;5050094;28;20203;-68
2022/08/02 00:42:06;;;;;;;4.00;3.17;;;19.80;99.90;;;;;;5044286;28;20227;-69
2022/08/02 00:44:33;;;;;;;4.90;3.40;;;19.70;99.90;;;;;;5050326;28;20609;-68
2022/08/02 00:47:00;;;;;;;4.23;3.50;;;19.60;99.90;;;;;;5050563;28;20191;-68
2022/08/02 00:49:26;;;;;;;3.80;3.20;;;19.60;99.90;;;;;;5046673;28;20206;-68
2022/08/02 00:51:53;;;;;;;4.73;3.47;;;19.60;99.90;;;;;;5049383;28;20215;-68
2022/08/02 00:54:20;;;;;;;4.00;3.17;;;19.80;99.90;;;;;;5051070;28;20622;-68
2022/08/02 00:56:46;;;;;;;3.73;3.33;;;19.80;99.90;;;;;;5051021;28;20203;-68
2022/08/02 00:59:17;;;;;;;3.30;3.00;;;19.80;99.90;;;;;;5050327;28;20596;-68
2022/08/02 01:01:44;;;;;;;5.67;3.40;;;19.80;99.90;;;;;;5050389;28;20234;-67
2022/08/02 01:04:24;;;;;;;3.67;3.30;;;19.80;99.90;;;;;;5050907;28;20710;-68
2022/08/02 01:06:58;;;;;;;5.43;3.63;;;19.70;99.90;;;;;;5044252;28;20190;-68
2022/08/02 01:09:25;;;;;;;3.90;3.40;;;19.60;99.90;;;;;;5054453;28;20195;-68
2022/08/02 01:11:52;;;;;;;3.47;3.17;;;19.60;99.90;;;;;;5054268;28;20272;-68
2022/08/02 01:14:19;;;;;;;3.40;3.10;;;19.60;99.90;;;;;;5055146;28;20202;-68
2022/08/02 01:16:55;;;;;;;3.83;3.43;;;19.50;99.90;;;;;;5051851;28;20681;-68
2022/08/02 01:19:50;;;;;;;3.67;3.37;;;19.40;99.90;;;;;;5054924;28;20669;-67
2022/08/02 01:22:45;;;;;;;4.37;3.40;;;19.30;99.90;;;;;;5048685;28;20242;-68
2022/08/02 01:25:53;;;;;;;5.40;3.47;;;19.20;99.90;;;;;;5050032;28;20230;-68
2022/08/02 01:28:37;;;;;;;5.63;3.60;;;19.30;99.90;;;;;;5042885;28;20200;-70
2022/08/02 01:31:33;;;;;;;3.80;3.40;;;19.40;99.90;;;;;;5039880;28;20218;-68
2022/08/02 01:34:17;;;;;;;5.57;3.57;;;19.40;99.90;;;;;;5028410;28;20623;-68
2022/08/02 01:36:48;;;;;;;5.77;3.90;;;19.40;99.90;;;;;;5051539;28;20206;-67
2022/08/02 01:39:19;;;;;;;5.37;3.43;;;19.50;99.90;;;;;;5046761;28;20256;-67
2022/08/02 01:41:59;;;;;;;3.80;3.47;;;19.30;99.90;;;;;;5052087;28;20218;-68
2022/08/02 01:44:30;;;;;;;4.20;3.50;;;19.10;99.90;;;;;;5036739;28;20198;-68
2022/08/02 01:47:00;;;;;;;5.10;3.60;;;19.00;99.90;;;;;;5052980;28;20713;-68
2022/08/02 01:49:29;;;;;;;3.97;3.57;;;18.90;99.90;;;;;;5051146;28;20195;-68
2022/08/02 01:54:46;;;;;;;4.00;3.60;;;18.70;99.90;;;;;;5053071;28;20195;-67
2022/08/02 01:57:14;;;;;;;4.17;3.77;;;18.70;99.90;;;;;;5047542;28;20191;-69
2022/08/02 01:59:44;;;;;;;4.80;3.67;;;18.60;99.90;;;;;;5052847;28;20260;-68
2022/08/02 02:02:13;;;;;;;4.73;3.70;;;18.60;99.90;;;;;;5053182;28;20273;-68
2022/08/02 02:04:42;;;;;;;4.27;3.80;;;18.50;99.90;;;;;;5051946;28;20199;-68
2022/08/02 02:07:12;;;;;;;4.10;3.70;;;18.50;99.90;;;;;;5045671;28;20191;-68
2022/08/02 02:09:39;;;;;;;4.50;4.10;;;18.60;99.90;;;;;;5053176;28;20198;-67
2022/08/02 02:12:18;;;;;;;4.10;3.70;;;18.70;99.90;;;;;;5043039;28;20219;-67
2022/08/02 02:14:46;;;;;;;4.73;3.67;;;18.90;99.90;;;;;;5050416;28;20244;-67
2022/08/02 02:17:20;;;;;;;5.17;3.47;;;19.00;99.90;;;;;;5053101;28;20731;-68
2022/08/02 02:20:08;;;;;;;5.37;3.97;;;18.80;99.90;;;;;;5052211;28;20268;-68
2022/08/02 02:22:35;;;;;;;4.67;3.73;;;18.80;99.90;;;;;;5048030;28;20509;-68
2022/08/02 02:25:02;;;;;;;4.47;3.97;;;18.70;99.90;;;;;;5052916;28;20208;-68
2022/08/02 02:27:34;;;;;;;3.90;3.50;;;18.60;99.90;;;;;;5052512;28;20223;-68
2022/08/02 02:30:04;;;;;;;4.03;3.50;;;18.70;99.90;;;;;;5050586;28;20609;-68
2022/08/02 02:32:33;;;;;;;4.50;3.50;;;18.70;99.90;;;;;;5037303;28;20575;-68
2022/08/02 02:35:02;;;;;;;4.23;3.60;;;18.60;99.90;;;;;;5051725;28;20214;-68
2022/08/02 02:37:31;;;;;;;3.97;3.57;;;18.60;99.90;;;;;;5052198;28;20206;-67
2022/08/02 02:39:58;;;;;;;4.07;3.67;;;18.70;99.90;;;;;;5049473;28;20249;-68
2022/08/02 02:42:31;;;;;;;4.20;3.80;;;18.70;99.90;;;;;;5052095;28;20702;-68
2022/08/02 02:44:59;;;;;;;4.43;4.03;;;18.50;99.90;;;;;;5052031;28;20202;-68
2022/08/02 02:47:28;;;;;;;6.47;4.00;;;18.40;99.90;;;;;;5052107;28;20195;-68
2022/08/02 02:50:08;;;;;;;4.67;3.70;;;18.30;99.90;;;;;;5044394;28;20221;-68
2022/08/02 02:52:37;;;;;;;4.83;3.60;;;18.20;99.90;;;;;;5052061;28;20281;-67
2022/08/02 02:55:05;;;;;;;4.30;3.90;;;18.20;99.90;;;;;;5051003;28;20253;-69
2022/08/02 02:57:32;;;;;;;6.33;3.60;;;18.10;99.90;;;;;;5051221;28;20599;-68
2022/08/02 02:59:59;;;;;;;4.13;3.73;;;18.10;99.90;;;;;;5050838;28;20674;-68
2022/08/02 03:02:27;;;;;;;4.40;3.83;;;18.10;99.90;;;;;;5051254;28;20218;-68
2022/08/02 03:04:54;;;;;;;5.13;4.20;;;18.20;99.90;;;;;;5036344;28;20190;-68
2022/08/02 03:07:25;;;;;;;4.67;4.17;;;18.20;99.90;;;;;;5045146;28;20194;-69
2022/08/02 03:09:52;;;;;;;4.40;4.00;;;18.20;99.90;;;;;;5051076;28;20205;-69
2022/08/02 03:12:24;;;;;;;4.27;3.87;;;18.20;99.90;;;;;;5051698;28;20210;-68
2022/08/02 03:15:00;;;;;;;3.90;3.43;;;18.20;99.90;;;;;;5049662;28;20194;-67
2022/08/02 03:17:56;;;;;;;4.67;4.10;;;18.20;99.90;;;;;;5051153;28;20195;-68
2022/08/02 03:20:23;;;;;;;4.77;4.27;;;18.10;99.90;;;;;;5029084;28;20219;-68
2022/08/02 03:22:50;;;;;;;5.93;4.17;;;18.20;99.90;;;;;;5051737;28;20223;-68
2022/08/02 03:25:17;;;;;;;4.33;3.80;;;18.20;99.90;;;;;;5050424;28;20195;-69
2022/08/02 03:27:45;;;;;;;5.17;4.40;;;18.10;99.90;;;;;;5051338;28;20203;-68
2022/08/02 03:30:13;;;;;;;5.83;4.23;;;18.10;99.90;;;;;;5043800;28;20190;-68
2022/08/02 03:32:43;;;;;;;6.77;4.50;;;18.10;99.90;;;;;;5050782;28;20206;-68
2022/08/02 03:35:12;;;;;;;5.13;4.40;;;18.20;99.90;;;;;;5048697;28;20199;-68
2022/08/02 03:37:40;;;;;;;4.90;4.13;;;18.20;99.90;;;;;;5050938;28;20203;-68
2022/08/02 03:40:09;;;;;;;6.40;4.00;;;18.10;99.90;;;;;;5050467;28;20815;-68
2022/08/02 03:42:38;;;;;;;5.57;4.73;;;18.00;99.90;;;;;;5050803;28;20253;-68
2022/08/02 03:45:07;;;;;;;5.80;4.27;;;18.00;99.90;;;;;;5047801;28;20195;-68
2022/08/02 03:47:36;;;;;;;5.30;4.73;;;18.00;99.90;;;;;;5037050;28;20237;-68
2022/08/02 03:50:04;;;;;;;8.10;5.90;;;18.00;99.90;;;;;;5050079;28;20763;-67
2022/08/02 03:52:32;;;;;;;5.20;4.70;;;18.10;99.90;;;;;;5046620;28;20219;-67
2022/08/02 03:54:59;;;;;;;6.07;4.83;;;17.90;99.90;;;;;;5050577;28;20195;-67
2022/08/02 03:57:26;;;;;;;5.30;4.47;;;17.90;99.90;;;;;;5050499;28;20280;-68
2022/08/02 03:59:53;;;;;;;6.50;5.50;;;17.70;99.90;;;;;;5049964;28;20202;-68
2022/08/02 04:02:19;;;;;;;5.63;4.40;;;17.60;99.90;;;;;;5048966;28;20226;-68
2022/08/02 04:04:46;;;;;;;4.90;4.37;;;17.50;99.90;;;;;;5050193;28;20264;-67
2022/08/02 04:07:12;;;;;;;5.00;4.53;;;17.40;99.90;;;;;;5050273;28;20194;-68
2022/08/02 04:09:39;;;;;;;6.57;4.97;;;17.40;99.90;;;;;;5050305;28;20199;-67
2022/08/02 04:12:06;;;;;;;5.57;5.00;;;17.40;99.90;;;;;;5047916;28;20698;-67
2022/08/02 04:14:33;;;;;;;6.27;4.40;;;17.40;99.90;;;;;;5050693;28;20416;-68
2022/08/02 04:17:08;;;;;;;4.83;4.33;;;17.40;99.90;;;;;;5050355;28;20209;-67
2022/08/02 04:19:35;;;;;;;5.80;4.90;;;17.40;99.90;;;;;;5048455;28;20203;-68
2022/08/02 04:22:06;;;;;;;5.70;5.10;;;17.40;99.90;;;;;;5048120;28;20716;-67
2022/08/02 04:24:40;;;;;;;5.33;4.83;;;17.40;99.90;;;;;;5050151;28;20204;-67
2022/08/02 04:27:09;;;;;;;8.10;5.57;;;17.40;99.90;;;;;;5049435;28;20198;-67
2022/08/02 04:29:57;;;;;;;7.77;5.33;;;17.60;99.90;;;;;;5047660;28;20195;-68
2022/08/02 04:32:24;;;;;;;6.13;5.03;;;17.70;99.90;;;;;;5050096;28;20206;-68
2022/08/02 04:34:51;;;;;;;5.40;4.87;;;17.80;99.90;;;;;;5050113;28;20195;-67
2022/08/02 04:37:38;;;;;;;4.97;4.47;;;17.70;99.90;;;;;;5050182;28;20202;-68
2022/08/02 04:40:24;;;;;;;5.07;4.57;;;17.70;99.90;;;;;;5048697;28;20218;-68
2022/08/02 04:42:52;;;;;;;5.50;5.00;;;17.70;99.90;;;;;;5051409;28;20309;-67
2022/08/02 04:45:20;;;;;;;6.33;5.37;;;17.70;99.90;;;;;;5054086;28;20253;-67
2022/08/02 04:47:47;;;;;;;5.37;4.87;;;17.90;99.90;;;;;;5048091;28;20195;-68
2022/08/02 04:50:29;;;;;;;5.60;4.73;;;18.00;99.90;;;;;;5049782;28;20708;-68
2022/08/02 04:52:55;;;;;;;6.20;5.00;;;18.00;99.90;;;;;;5053478;28;20213;-68
2022/08/02 04:55:27;;;;;;;6.87;5.33;;;18.00;99.90;;;;;;5054371;28;20233;-67
2022/08/02 04:57:54;;;;;;;5.10;4.60;;;18.10;99.90;;;;;;5049485;28;20201;-68
2022/08/02 05:00:21;;;;;;;5.20;4.70;;;18.20;99.90;;;;;;5040387;28;20272;-68
2022/08/02 05:02:48;;;;;;;6.43;4.90;;;18.20;99.90;;;;;;5054001;28;20280;-68
2022/08/02 05:05:15;;;;;;;5.37;4.87;;;18.20;99.90;;;;;;5054381;28;20187;-68
2022/08/02 05:07:42;;;;;;;5.27;4.67;;;18.20;99.90;;;;;;5047683;28;20629;-68
2022/08/02 05:10:09;;;;;;;5.00;4.40;;;18.30;99.90;;;;;;5054060;28;20190;-68
2022/08/02 05:12:39;;;;;;;4.67;4.27;;;18.40;99.90;;;;;;5053295;28;20627;-68
2022/08/02 05:15:06;;;;;;;5.37;4.87;;;18.50;99.90;;;;;;5052282;28;20199;-67
2022/08/02 05:17:38;;;;;;;4.83;4.40;;;18.50;99.90;;;;;;5053751;28;20244;-67
2022/08/02 05:20:14;;;;;;;7.87;4.57;;;18.50;99.90;;;;;;5053191;28;20221;-67
2022/08/02 05:22:41;;;;;;;5.13;4.63;;;18.60;99.90;;;;;;5051978;28;20221;-68
2022/08/02 05:25:08;;;;;;;5.17;4.67;;;18.60;99.90;;;;;;5053797;28;20199;-68
2022/08/02 05:27:35;;;;;;;5.07;4.57;;;18.70;99.90;;;;;;5053558;28;20190;-68
2022/08/02 05:30:03;;;;;;;5.20;4.50;;;18.80;99.90;;;;;;5053117;28;20191;-68
2022/08/02 05:32:30;;;;;;;4.87;4.40;;;18.90;99.90;;;;;;5052491;28;20207;-68
2022/08/02 05:34:58;;;;;;;6.57;4.53;;;19.00;99.90;;;;;;5053424;28;20594;-68
2022/08/02 05:37:25;;;;;;;5.27;4.77;;;19.10;99.90;;;;;;5053615;28;20755;-68
2022/08/02 05:39:57;;;;;;;5.63;4.63;;;19.40;99.90;;;;;;5050982;28;20196;-68
2022/08/02 05:42:24;;;;;;;5.10;4.60;;;19.70;99.90;;;;;;5053325;28;20625;-68
2022/08/02 05:44:50;;;;;;;5.57;4.40;;;19.80;99.90;;;;;;5052896;28;20195;-67
2022/08/02 05:47:17;;;;;;;7.10;4.73;;;20.00;99.90;;;;;;5053435;28;20195;-68
2022/08/02 05:49:44;;;;;;;6.40;4.20;;;20.20;99.90;;;;;;5050498;28;20574;-67
2022/08/02 05:52:16;;;;;;;5.23;4.50;;;20.20;99.90;;;;;;5052928;28;20756;-68
2022/08/02 05:55:11;;;;;;;6.50;4.40;;;20.30;99.90;;;;;;5052480;28;21375;-68
2022/08/02 05:57:59;;;;;;;5.40;4.20;;;20.50;99.90;;;;;;5049650;28;20226;-68
2022/08/02 06:00:30;;;;;;;5.00;4.40;;;20.80;99.90;;;;;;5047808;28;20277;-68
2022/08/02 06:03:33;;;;;;;4.25;3.85;;;21.00;99.90;;;;;;5053374;28;20218;-69
2022/08/02 06:06:16;;;;;;;4.38;3.97;;;21.30;99.90;;;;;;5052508;28;20229;-68
2022/08/02 06:08:50;;;;;;;6.80;4.18;;;21.40;99.90;;;;;;5040573;28;20260;-67
2022/08/02 06:11:21;;;;;;;7.75;4.20;;;21.50;99.90;;;;;;5050017;28;20230;-67
2022/08/02 06:13:48;;;;;;;6.22;4.40;;;21.40;99.90;;;;;;5052628;28;20194;-68
2022/08/02 06:16:15;;;;;;;5.32;4.80;;;21.30;99.90;;;;;;5055299;28;20218;-67
2022/08/02 06:18:59;;;;;;;6.95;4.47;;;21.20;99.90;;;;;;5052504;28;20202;-68
2022/08/02 06:21:26;;;;;;;6.25;4.88;;;21.00;99.90;;;;;;5047592;28;20223;-68
2022/08/02 06:24:16;;;;;;;5.70;4.70;;;21.00;99.90;;;;;;5052447;28;20268;-68
2022/08/02 06:26:43;;;;;;;6.32;4.90;;;20.80;99.90;;;;;;5050870;28;20190;-68
2022/08/02 06:29:12;;;;;;;6.20;4.82;;;20.80;99.90;;;;;;5050590;28;20198;-68
2022/08/02 06:31:41;;;;;;;5.97;4.75;;;20.90;99.90;;;;;;5046893;28;20227;-68
2022/08/02 06:34:10;;;;;;;7.63;4.93;;;20.90;99.90;;;;;;5057844;28;20283;-68
2022/08/02 06:36:44;;;;;;;7.47;5.32;;;20.70;99.90;;;;;;5047294;28;20199;-68
2022/08/02 06:39:30;;;;;;;9.70;5.13;;;20.90;99.90;;;;;;5040083;28;20731;-68
2022/08/02 06:42:01;;;;;;;6.13;4.82;;;21.00;99.90;;;;;;5048917;28;20791;-68
2022/08/02 06:44:28;;;;;;;7.75;5.20;;;21.10;99.90;;;;;;5052203;28;20195;-67
2022/08/02 06:47:15;;;;;;;5.22;4.43;;;21.10;99.90;;;;;;5052326;28;20190;-68
2022/08/02 06:49:42;;;;;;;11.23;5.03;;;21.20;99.90;;;;;;5051620;28;20603;-68
2022/08/02 06:52:20;;;;;;;5.68;4.70;;;21.40;99.90;;;;;;5051674;28;20593;-68
2022/08/02 06:54:55;;;;;;;6.13;4.88;;;21.60;99.90;;;;;;5052100;28;20241;-69
2022/08/02 06:57:22;;;;;;;6.40;4.60;;;21.60;99.90;;;;;;5051644;28;20253;-68
2022/08/02 06:59:48;;;;;;;6.45;4.90;;;21.80;99.90;;;;;;5049996;28;20195;-68
2022/08/02 07:02:15;;;;;;;5.40;3.92;;;21.80;99.90;;;;;;5051082;28;20218;-68
2022/08/02 07:04:42;;;;;;;6.68;4.90;;;22.00;99.90;;;;;;5051492;28;20195;-68
2022/08/02 07:07:08;;;;;;;7.55;4.78;;;22.20;99.90;;;;;;5051383;28;20199;-69
2022/08/02 07:09:35;;;;;;;6.07;4.55;;;22.30;99.90;;;;;;5049062;28;20194;-68
2022/08/02 07:12:02;;;;;;;11.02;4.75;;;22.50;99.90;;;;;;5039813;28;20218;-68
2022/08/02 07:14:29;;;;;;;6.07;4.70;;;22.50;99.90;;;;;;5051047;28;20202;-68
2022/08/02 07:16:57;;;;;;;4.80;4.30;;;22.80;99.90;;;;;;5051879;28;20217;-68
2022/08/02 07:19:26;;;;;;;4.65;3.83;;;23.40;99.90;;;;;;5046444;28;20582;-69
2022/08/02 07:22:03;;;;;;;4.63;2.97;;;24.00;99.90;;;;;;5051211;28;20222;-68
2022/08/02 07:24:30;;;;;;;4.50;3.85;;;24.70;99.90;;;;;;5050982;28;20230;-68
2022/08/02 07:26:57;;;;;;;5.00;3.40;;;25.20;99.90;;;;;;5047860;28;20674;-68
2022/08/02 07:29:38;;;;;;;3.95;3.22;;;25.40;99.90;;;;;;5047872;28;20290;-68
2022/08/02 07:32:14;;;;;;;3.80;3.40;;;25.70;99.90;;;;;;5050832;28;20621;-69
2022/08/02 07:34:41;;;;;;;3.13;2.83;;;25.70;99.90;;;;;;5048923;28;20205;-68
2022/08/02 07:37:15;;;;;;;4.85;3.38;;;25.70;99.90;;;;;;5050921;28;20632;-68
2022/08/02 07:40:02;;;;;;;5.90;3.50;;;25.70;99.90;;;;;;5050671;28;20244;-68
2022/08/02 07:42:37;;;;;;;3.97;3.17;;;25.60;99.90;;;;;;5046921;28;20751;-69
2022/08/02 07:45:05;;;;;;;4.90;3.03;;;26.00;99.90;;;;;;5051281;28;20198;-68
2022/08/02 07:47:31;;;;;;;5.45;3.00;;;26.30;99.90;;;;;;5050866;28;20209;-69
2022/08/02 07:49:58;;;;;;;4.63;3.00;;;26.60;99.90;;;;;;5050191;28;20194;-68
2022/08/02 07:52:24;;;;;;;3.22;2.80;;;26.90;99.90;;;;;;5046650;28;20694;-69
2022/08/02 07:54:51;;;;;;;3.70;3.13;;;27.00;99.90;;;;;;5051689;28;20195;-70
2022/08/02 07:57:19;;;;;;;4.95;3.10;;;27.10;99.90;;;;;;5049996;28;20199;-68
2022/08/02 07:59:46;;;;;;;6.28;3.40;;;27.30;99.90;;;;;;5049507;28;20655;-68
2022/08/02 08:02:13;;;;;;;7.75;3.30;;;27.30;99.90;;;;;;5051250;28;20674;-69
2022/08/02 08:04:40;;;;;;;4.22;2.80;;;27.20;99.90;;;;;;5050499;28;20625;-69
2022/08/02 08:07:09;;;;;;;2.58;2.05;;;27.30;99.90;;;;;;5049742;28;20199;-69
2022/08/02 08:09:40;;;;;;;4.57;2.33;;;27.30;99.90;;;;;;5050595;28;20229;-69
2022/08/02 08:12:08;;;;;;;3.40;2.60;;;27.20;99.90;;;;;;5049649;28;20303;-69
2022/08/02 08:14:36;;;;;;;4.15;2.53;;;27.00;99.90;;;;;;5050021;28;20286;-69
2022/08/02 08:17:07;;;;;;;5.07;2.80;;;26.80;99.90;;;;;;5048666;28;20202;-69
2022/08/02 08:19:34;;;;;;;7.03;2.80;;;26.70;99.90;;;;;;5050061;28;20202;-69
2022/08/02 08:22:18;;;;;;;5.43;2.67;;;26.80;99.90;;;;;;5050721;28;20313;-69
2022/08/02 08:24:45;;;;;;;5.32;3.00;;;26.80;99.90;;;;;;5047137;28;20219;-69
2022/08/02 08:27:14;;;;;;;6.78;2.65;;;26.80;99.90;;;;;;5050365;28;20261;-69
2022/08/02 08:29:41;;;;;;;4.88;2.83;;;26.70;99.90;;;;;;5049548;28;20687;-68
2022/08/02 08:32:09;;;;;;;3.30;2.60;;;26.70;99.90;;;;;;5049430;28;20613;-69
2022/08/02 08:34:40;;;;;;;4.55;2.38;;;26.70;99.90;;;;;;5046577;28;20252;-69
2022/08/02 08:37:06;;;;;;;5.53;2.20;;;26.80;99.90;;;;;;5049697;28;20201;-68
2022/08/02 08:39:33;;;;;;;5.90;2.40;;;26.80;99.90;;;;;;5050102;28;20194;-69
2022/08/02 08:42:19;;;;;;;10.52;3.13;;;26.80;99.90;;;;;;5048040;28;20214;-69
2022/08/02 08:44:46;;;;;;;3.33;2.17;;;26.90;99.90;;;;;;5050097;28;20226;-69
2022/08/02 08:47:13;;;;;;;7.63;2.30;;;26.90;99.90;;;;;;5050025;28;20187;-69
2022/08/02 08:49:43;;;;;;;3.85;2.28;;;27.10;99.90;;;;;;5049988;28;20256;-69
2022/08/02 08:52:21;;;;;;;3.33;2.38;;;27.30;99.90;;;;;;5048544;28;20221;-69
2022/08/02 08:54:49;;;;;;;3.75;2.10;;;27.50;99.90;;;;;;5049906;28;20202;-69
2022/08/02 08:57:18;;;;;;;2.72;2.08;;;27.60;99.90;;;;;;5049917;28;20195;-69
2022/08/02 08:59:45;;;;;;;4.68;2.72;;;27.60;99.90;;;;;;5048793;28;20198;-69
2022/08/02 09:02:11;;;;;;;2.33;1.98;;;27.60;99.90;;;;;;5048930;28;20348;-69
2022/08/02 09:04:49;;;;;;;2.38;2.08;;;27.70;99.90;;;;;;5049636;28;20236;-70
2022/08/02 09:07:21;;;;;;;4.70;2.25;;;27.80;99.90;;;;;;5049882;28;20195;-69
2022/08/02 09:09:48;;;;;;;3.80;2.42;;;27.90;99.90;;;;;;5048365;28;20281;-69
2022/08/02 09:12:16;;;;;;;3.15;2.00;;;28.10;99.90;;;;;;5049146;28;20633;-69
2022/08/02 09:14:45;;;;;;;3.15;1.98;;;28.00;99.90;;;;;;5049665;28;20863;-69
2022/08/02 09:17:16;;;;;;;2.80;1.90;;;28.20;99.90;;;;;;5046325;28;20671;-69
2022/08/02 09:19:43;;;;;;;2.80;2.17;;;28.30;99.90;;;;;;5049571;28;20202;-69
2022/08/02 09:22:13;;;;;;;3.17;2.15;;;28.50;99.90;;;;;;5049778;28;20215;-69
2022/08/02 09:24:44;;;;;;;2.22;1.60;;;28.60;99.90;;;;;;5049142;28;20304;-69
2022/08/02 09:27:16;;;;;;;2.50;1.70;;;28.80;99.90;;;;;;5045748;28;20656;-70
2022/08/02 09:29:50;;;;;;;3.05;2.00;;;28.70;99.90;;;;;;5052167;28;20203;-69
2022/08/02 09:32:45;;;;;;;1.92;1.60;;;28.40;99.90;;;;;;5039109;28;20206;-69
2022/08/02 09:35:13;;;;;;;2.40;1.77;;;28.40;99.90;;;;;;5051430;28;20198;-69
2022/08/02 09:37:40;;;;;;;3.00;1.98;;;28.40;99.90;;;;;;5053295;28;20195;-68
2022/08/02 09:40:10;;;;;;;2.75;2.10;;;28.50;99.90;;;;;;5052912;28;20187;-69
2022/08/02 09:42:57;;;;;;;2.17;1.85;;;28.60;99.90;;;;;;5051165;28;20194;-69
2022/08/02 09:45:30;;;;;;;3.78;1.70;;;28.60;99.90;;;;;;5052927;28;20565;-69
2022/08/02 09:47:57;;;;;;;2.75;1.70;;;28.60;99.90;;;;;;5053364;28;20244;-69
2022/08/02 09:50:23;;;;;;;2.53;1.92;;;28.70;99.90;;;;;;5052705;28;20218;-68
2022/08/02 09:52:50;;;;;;;2.28;1.83;;;28.80;99.90;;;;;;5051383;28;20191;-69
2022/08/02 09:55:17;;;;;;;2.10;1.80;;;29.00;99.90;;;;;;5052945;28;20248;-69
2022/08/02 09:57:44;;;;;;;3.88;1.77;;;29.00;99.90;;;;;;5052991;28;20191;-69
2022/08/02 10:00:17;;;;;;;1.63;1.50;;;29.20;99.90;;;;;;5054076;28;20691;-69
2022/08/02 10:03:09;;;;;;;1.90;1.50;;;29.30;99.90;;;;;;5049213;28;20553;-70
2022/08/02 10:05:53;;;;;;;2.33;1.73;;;29.50;99.90;;;;;;5051251;28;20225;-69
2022/08/02 10:08:22;;;;;;;2.03;1.58;;;29.60;99.90;;;;;;5052226;28;20199;-70
2022/08/02 10:10:59;;;;;;;1.88;1.60;;;29.70;99.90;;;;;;5051722;28;20282;-69
2022/08/02 10:13:35;;;;;;;4.40;2.00;;;29.70;99.90;;;;;;5052662;28;20248;-69
2022/08/02 10:16:03;;;;;;;2.25;1.50;;;29.60;99.90;;;;;;5051423;28;20647;-70
2022/08/02 10:18:30;;;;;;;3.22;1.90;;;29.70;99.90;;;;;;5052475;28;20222;-69
2022/08/02 10:21:11;;;;;;;2.03;1.48;;;29.80;99.90;;;;;;5052145;28;20214;-68
2022/08/02 10:23:39;;;;;;;3.10;1.80;;;30.10;99.90;;;;;;5048898;28;20224;-69
2022/08/02 10:26:07;;;;;;;3.28;1.70;;;30.10;99.90;;;;;;5052219;28;20626;-69
2022/08/02 10:28:34;;;;;;;2.97;1.92;;;30.30;99.90;;;;;;5052217;28;20191;-70
2022/08/02 10:31:04;;;;;;;1.70;1.60;;;30.40;99.90;;;;;;5051845;28;20215;-69
2022/08/02 10:33:35;;;;;;;1.80;1.60;;;30.10;99.90;;;;;;5048228;28;20226;-69
2022/08/02 10:36:03;;;;;;;2.75;1.83;;;30.20;99.90;;;;;;5052191;28;20194;-69
2022/08/02 10:38:34;;;;;;;1.70;1.40;;;30.30;99.90;;;;;;5052160;28;20195;-70
2022/08/02 10:41:00;;;;;;;1.90;1.40;;;30.40;99.90;;;;;;5050350;28;20219;-69
2022/08/02 10:43:30;;;;;;;1.60;1.50;;;30.50;99.90;;;;;;5051765;28;20226;-69
2022/08/02 10:46:32;;;;;;;1.92;1.63;;;30.60;99.90;;;;;;5051702;28;20191;-68
2022/08/02 10:49:12;;;;;;;2.13;1.60;;;30.70;99.90;;;;;;5059434;28;20202;-70
2022/08/02 10:52:01;;;;;;;1.60;1.50;;;30.70;99.80;;;;;;5051503;28;20277;-70
2022/08/02 10:54:34;;;;;;;3.58;1.63;;;30.80;99.90;;;;;;5051805;28;20207;-70
2022/08/02 10:57:01;;;;;;;1.40;1.30;;;30.90;99.90;;;;;;5051573;28;20609;-68
2022/08/02 10:59:34;;;;;;;2.72;1.70;;;31.00;99.80;;;;;;5050829;28;20256;-69
2022/08/02 11:02:04;;;;;;;2.17;1.50;;;31.00;99.50;;;;;;5051612;28;20277;-70
2022/08/02 11:04:32;;;;;;;1.50;1.40;;;31.00;99.80;;;;;;5051478;28;20644;-69
2022/08/02 11:07:16;;;;;;;1.88;1.55;;;30.90;99.60;;;;;;5051880;28;20206;-69
2022/08/02 11:09:46;;;;;;;2.70;1.58;;;31.20;99.90;;;;;;5046830;28;20239;-70
2022/08/02 11:12:19;;;;;;;3.28;1.50;;;31.10;99.40;;;;;;5052073;28;20211;-69
2022/08/02 11:15:02;;;;;;;3.20;1.60;;;30.60;99.90;;;;;;5051845;28;20195;-69
2022/08/02 11:17:53;;;;;;;3.55;1.80;;;30.70;99.90;;;;;;5048567;28;20199;-69
2022/08/02 11:20:24;;;;;;;2.40;2.20;;;30.90;99.90;;;;;;5047588;28;20225;-69
2022/08/02 11:22:53;;;;;;;1.60;1.50;;;30.60;99.20;;;;;;5050947;28;20207;-69
2022/08/02 11:25:22;;;;;;;3.67;1.60;;;30.70;99.20;;;;;;5051310;28;20219;-69
2022/08/02 11:27:51;;;;;;;2.42;1.58;;;30.90;98.90;;;;;;5046086;28;20473;-69
2022/08/02 11:30:19;;;;;;;2.72;1.50;;;30.80;98.40;;;;;;5050887;28;20242;-68
2022/08/02 11:32:59;;;;;;;1.70;1.60;;;30.80;99.00;;;;;;5050584;28;20245;-68
2022/08/02 11:35:58;;;;;;;2.28;1.70;;;30.90;98.20;;;;;;5051010;28;20198;-69
2022/08/02 11:38:25;;;;;;;2.00;1.77;;;31.10;98.50;;;;;;5048739;28;20198;-70
2022/08/02 11:40:52;;;;;;;2.85;1.50;;;31.10;97.80;;;;;;5050404;28;20219;-68
2022/08/02 11:43:26;;;;;;;1.63;1.52;;;31.30;98.20;;;;;;5050293;28;20194;-70
2022/08/02 11:45:54;;;;;;;1.42;1.33;;;31.00;98.30;;;;;;5049693;28;20191;-69
2022/08/02 11:48:40;;;;;;;1.60;1.50;;;31.30;98.60;;;;;;5051336;28;20214;-69
2022/08/02 11:51:17;;;;;;;1.65;1.55;;;31.60;97.90;;;;;;5050580;28;20230;-68
2022/08/02 11:53:45;;;;;;;2.83;1.60;;;31.70;97.70;;;;;;5043385;28;20221;-69
2022/08/02 11:56:13;;;;;;;1.75;1.65;;;31.90;97.20;;;;;;5050978;28;20201;-69
2022/08/02 11:59:07;;;;;;;3.13;1.50;;;32.00;97.10;;;;;;5049252;28;20186;-69
2022/08/02 12:01:36;;;;;;;2.25;1.52;;;32.10;97.30;;;;;;5045824;28;20226;-69
2022/08/02 12:04:16;;;;;;;1.85;1.60;;;32.20;97.30;;;;;;5046491;28;20689;-69
2022/08/02 12:06:43;;;;;;;1.75;1.35;;;32.50;96.60;;;;;;5047266;28;20206;-68
2022/08/02 12:09:13;;;;;;;2.55;1.63;;;32.70;97.00;;;;;;5050634;28;20257;-69
2022/08/02 12:11:50;;;;;;;3.88;1.70;;;32.70;96.30;;;;;;5044961;28;20211;-69
2022/08/02 12:14:17;;;;;;;1.80;1.67;;;32.50;95.90;;;;;;5050178;28;20195;-69
2022/08/02 12:19:30;;;;;;;2.88;1.60;;;31.60;95.80;;;;;;5046024;28;20214;-70
2022/08/02 12:22:17;;;;;;;3.05;1.52;;;31.60;95.60;;;;;;5049892;28;20225;-69
2022/08/02 12:24:50;;;;;;;1.70;1.50;;;31.20;96.40;;;;;;5047972;28;20207;-69
2022/08/02 12:27:34;;;;;;;1.50;1.25;;;31.50;96.70;;;;;;5050285;28;20199;-69
2022/08/02 12:30:13;;;;;;;4.00;1.73;;;31.80;95.80;;;;;;5039721;28;20190;-67
2022/08/02 12:32:40;;;;;;;1.63;1.52;;;31.90;95.10;;;;;;5049657;28;20202;-69
2022/08/02 12:35:21;;;;;;;1.67;1.50;;;31.80;95.40;;;;;;5049963;28;20206;-69
2022/08/02 12:37:52;;;;;;;4.15;1.40;;;31.90;95.80;;;;;;5048922;28;20191;-69
2022/08/02 12:40:30;;;;;;;1.77;1.50;;;32.20;96.00;;;;;;5044712;28;20215;-70
2022/08/02 12:42:59;;;;;;;1.50;1.40;;;32.00;95.60;;;;;;5044121;28;20248;-69
2022/08/02 12:45:28;;;;;;;2.53;1.70;;;31.50;95.30;;;;;;5050148;28;20221;-70
2022/08/02 12:48:08;;;;;;;3.47;1.75;;;31.30;95.70;;;;;;5048087;28;20195;-69
2022/08/02 12:50:38;;;;;;;4.50;1.55;;;31.40;96.10;;;;;;5050023;28;20767;-68
2022/08/02 12:53:15;;;;;;;4.05;1.55;;;31.50;95.40;;;;;;5043432;28;20269;-69
2022/08/02 12:55:56;;;;;;;2.70;1.75;;;31.60;95.20;;;;;;5049071;28;20199;-68
2022/08/02 12:58:44;;;;;;;2.95;1.65;;;31.60;94.70;;;;;;5048153;28;20202;-70
2022/08/02 13:01:11;;;;;;;1.73;1.63;;;31.40;95.80;;;;;;5045326;28;20229;-69
2022/08/02 13:03:38;;;;;;;2.45;1.63;;;31.70;94.90;;;;;;5050910;28;20199;-70
2022/08/02 13:06:24;;;;;;;2.08;1.80;;;31.90;95.10;;;;;;5047488;28;20737;-69
2022/08/02 13:09:15;;;;;;;1.52;1.42;;;31.90;95.30;;;;;;5054255;28;20202;-69
2022/08/02 13:11:42;;;;;;;1.58;1.48;;;32.10;94.90;;;;;;5053733;28;20214;-69
2022/08/02 13:14:10;;;;;;;2.03;1.50;;;32.00;95.10;;;;;;5052553;28;20201;-70